sensor_id;sensor_type;location;lat;lon;timestamp;P1;durP1;ratioP1;P2;durP2;ratioP2
18853;SDS011;9556;49.374;19.446;2023-07-31T00:00:15;1.70;;;1.48;;
18853;SDS011;9556;49.374;19.446;2023-07-31T00:02:42;1.70;;;1.40;;
18853;SDS011;9556;49.374;19.446;2023-07-31T00:05:09;2.30;;;1.38;;
18853;SDS011;9556;49.374;19.446;2023-07-31T00:07:36;3.05;;;1.63;;
18853;SDS011;9556;49.374;19.446;2023-07-31T00:10:04;4.20;;;1.60;;
18853;SDS011;9556;49.374;19.446;2023-07-31T00:12:31;1.50;;;1.30;;
18853;SDS011;9556;49.374;19.446;2023-07-31T00:14:58;4.50;;;1.58;;
18853;SDS011;9556;49.374;19.446;2023-07-31T00:17:26;1.80;;;1.40;;
18853;SDS011;9556;49.374;19.446;2023-07-31T00:19:53;2.08;;;1.33;;
18853;SDS011;9556;49.374;19.446;2023-07-31T00:22:21;1.95;;;1.58;;
18853;SDS011;9556;49.374;19.446;2023-07-31T00:24:48;1.90;;;1.33;;
18853;SDS011;9556;49.374;19.446;2023-07-31T00:27:15;2.53;;;1.25;;
18853;SDS011;9556;49.374;19.446;2023-07-31T00:29:42;2.72;;;1.30;;
18853;SDS011;9556;49.374;19.446;2023-07-31T00:32:09;2.00;;;1.63;;
18853;SDS011;9556;49.374;19.446;2023-07-31T00:34:38;1.95;;;1.30;;
18853;SDS011;9556;49.374;19.446;2023-07-31T00:37:05;1.77;;;1.20;;
18853;SDS011;9556;49.374;19.446;2023-07-31T00:39:33;1.98;;;1.40;;
18853;SDS011;9556;49.374;19.446;2023-07-31T00:42:00;5.80;;;1.48;;
18853;SDS011;9556;49.374;19.446;2023-07-31T00:44:28;1.90;;;1.30;;
18853;SDS011;9556;49.374;19.446;2023-07-31T00:46:55;1.95;;;1.40;;
18853;SDS011;9556;49.374;19.446;2023-07-31T00:49:23;2.33;;;1.20;;
18853;SDS011;9556;49.374;19.446;2023-07-31T00:51:52;2.53;;;1.50;;
18853;SDS011;9556;49.374;19.446;2023-07-31T00:54:22;1.65;;;1.35;;
18853;SDS011;9556;49.374;19.446;2023-07-31T00:56:49;2.70;;;1.27;;
18853;SDS011;9556;49.374;19.446;2023-07-31T00:59:17;8.95;;;1.30;;
18853;SDS011;9556;49.374;19.446;2023-07-31T01:01:44;2.58;;;1.35;;
18853;SDS011;9556;49.374;19.446;2023-07-31T01:04:12;2.80;;;1.15;;
18853;SDS011;9556;49.374;19.446;2023-07-31T01:06:40;5.40;;;1.58;;
18853;SDS011;9556;49.374;19.446;2023-07-31T01:09:14;1.60;;;1.20;;
18853;SDS011;9556;49.374;19.446;2023-07-31T01:11:45;1.35;;;1.13;;
18853;SDS011;9556;49.374;19.446;2023-07-31T01:14:13;1.40;;;1.15;;
18853;SDS011;9556;49.374;19.446;2023-07-31T01:16:40;3.47;;;1.40;;
18853;SDS011;9556;49.374;19.446;2023-07-31T01:19:07;2.83;;;1.42;;
18853;SDS011;9556;49.374;19.446;2023-07-31T01:21:41;1.48;;;1.15;;
18853;SDS011;9556;49.374;19.446;2023-07-31T01:24:25;2.05;;;1.10;;
18853;SDS011;9556;49.374;19.446;2023-07-31T01:26:57;1.77;;;1.20;;
18853;SDS011;9556;49.374;19.446;2023-07-31T01:29:26;1.23;;;1.13;;
18853;SDS011;9556;49.374;19.446;2023-07-31T01:31:56;2.05;;;1.30;;
18853;SDS011;9556;49.374;19.446;2023-07-31T01:34:23;3.63;;;1.20;;
18853;SDS011;9556;49.374;19.446;2023-07-31T01:36:51;1.55;;;1.02;;
18853;SDS011;9556;49.374;19.446;2023-07-31T01:39:19;1.17;;;1.00;;
18853;SDS011;9556;49.374;19.446;2023-07-31T01:41:46;1.50;;;1.40;;
18853;SDS011;9556;49.374;19.446;2023-07-31T01:44:15;1.67;;;1.20;;
18853;SDS011;9556;49.374;19.446;2023-07-31T01:46:42;1.35;;;1.20;;
18853;SDS011;9556;49.374;19.446;2023-07-31T01:49:09;1.50;;;1.23;;
18853;SDS011;9556;49.374;19.446;2023-07-31T01:51:36;1.60;;;1.30;;
18853;SDS011;9556;49.374;19.446;2023-07-31T01:54:03;1.20;;;1.10;;
18853;SDS011;9556;49.374;19.446;2023-07-31T01:56:31;1.20;;;1.10;;
18853;SDS011;9556;49.374;19.446;2023-07-31T01:58:58;5.47;;;1.25;;
18853;SDS011;9556;49.374;19.446;2023-07-31T02:01:26;3.05;;;1.30;;
18853;SDS011;9556;49.374;19.446;2023-07-31T02:03:54;2.53;;;1.40;;
18853;SDS011;9556;49.374;19.446;2023-07-31T02:06:21;2.85;;;1.20;;
18853;SDS011;9556;49.374;19.446;2023-07-31T02:08:48;3.10;;;1.40;;
18853;SDS011;9556;49.374;19.446;2023-07-31T02:11:15;2.00;;;1.23;;
18853;SDS011;9556;49.374;19.446;2023-07-31T02:13:43;1.40;;;1.15;;
18853;SDS011;9556;49.374;19.446;2023-07-31T02:16:10;1.92;;;1.40;;
18853;SDS011;9556;49.374;19.446;2023-07-31T02:18:38;2.13;;;1.40;;
18853;SDS011;9556;49.374;19.446;2023-07-31T02:21:05;1.73;;;1.30;;
18853;SDS011;9556;49.374;19.446;2023-07-31T02:23:32;1.98;;;1.25;;
18853;SDS011;9556;49.374;19.446;2023-07-31T02:26:00;3.28;;;1.33;;
18853;SDS011;9556;49.374;19.446;2023-07-31T02:28:27;1.80;;;1.30;;
18853;SDS011;9556;49.374;19.446;2023-07-31T02:30:54;1.77;;;1.20;;
18853;SDS011;9556;49.374;19.446;2023-07-31T02:33:21;1.33;;;1.23;;
18853;SDS011;9556;49.374;19.446;2023-07-31T02:35:50;2.83;;;1.40;;
18853;SDS011;9556;49.374;19.446;2023-07-31T02:38:17;1.35;;;1.20;;
18853;SDS011;9556;49.374;19.446;2023-07-31T02:40:44;3.80;;;1.40;;
18853;SDS011;9556;49.374;19.446;2023-07-31T02:43:11;1.23;;;1.13;;
18853;SDS011;9556;49.374;19.446;2023-07-31T02:45:38;1.30;;;1.20;;
18853;SDS011;9556;49.374;19.446;2023-07-31T02:48:05;2.20;;;1.25;;
18853;SDS011;9556;49.374;19.446;2023-07-31T02:50:32;2.08;;;1.45;;
18853;SDS011;9556;49.374;19.446;2023-07-31T02:53:01;1.77;;;1.45;;
18853;SDS011;9556;49.374;19.446;2023-07-31T02:55:28;3.10;;;1.42;;
18853;SDS011;9556;49.374;19.446;2023-07-31T02:57:55;1.63;;;1.30;;
18853;SDS011;9556;49.374;19.446;2023-07-31T03:00:23;1.70;;;1.20;;
18853;SDS011;9556;49.374;19.446;2023-07-31T03:02:50;1.70;;;1.40;;
18853;SDS011;9556;49.374;19.446;2023-07-31T03:05:17;2.10;;;1.20;;
18853;SDS011;9556;49.374;19.446;2023-07-31T03:07:44;1.85;;;1.10;;
18853;SDS011;9556;49.374;19.446;2023-07-31T03:10:13;3.17;;;1.42;;
18853;SDS011;9556;49.374;19.446;2023-07-31T03:12:40;1.55;;;1.20;;
18853;SDS011;9556;49.374;19.446;2023-07-31T03:15:08;3.33;;;1.30;;
18853;SDS011;9556;49.374;19.446;2023-07-31T03:17:35;1.42;;;1.30;;
18853;SDS011;9556;49.374;19.446;2023-07-31T03:20:03;1.23;;;1.13;;
18853;SDS011;9556;49.374;19.446;2023-07-31T03:22:30;1.38;;;1.17;;
18853;SDS011;9556;49.374;19.446;2023-07-31T03:24:57;2.72;;;1.35;;
18853;SDS011;9556;49.374;19.446;2023-07-31T03:27:26;1.55;;;1.30;;
18853;SDS011;9556;49.374;19.446;2023-07-31T03:29:53;1.60;;;1.30;;
18853;SDS011;9556;49.374;19.446;2023-07-31T03:32:20;2.67;;;1.50;;
18853;SDS011;9556;49.374;19.446;2023-07-31T03:34:47;1.50;;;1.35;;
18853;SDS011;9556;49.374;19.446;2023-07-31T03:37:14;3.03;;;1.40;;
18853;SDS011;9556;49.374;19.446;2023-07-31T03:39:41;3.70;;;1.73;;
18853;SDS011;9556;49.374;19.446;2023-07-31T03:42:09;1.90;;;1.48;;
18853;SDS011;9556;49.374;19.446;2023-07-31T03:44:38;2.58;;;1.40;;
18853;SDS011;9556;49.374;19.446;2023-07-31T03:47:05;1.48;;;1.38;;
18853;SDS011;9556;49.374;19.446;2023-07-31T03:49:32;1.60;;;1.35;;
18853;SDS011;9556;49.374;19.446;2023-07-31T03:51:59;1.70;;;1.45;;
18853;SDS011;9556;49.374;19.446;2023-07-31T03:54:26;1.63;;;1.27;;
18853;SDS011;9556;49.374;19.446;2023-07-31T03:56:54;4.18;;;1.45;;
18853;SDS011;9556;49.374;19.446;2023-07-31T03:59:21;2.83;;;1.30;;
18853;SDS011;9556;49.374;19.446;2023-07-31T04:01:49;1.98;;;1.45;;
18853;SDS011;9556;49.374;19.446;2023-07-31T04:04:16;2.38;;;1.60;;
18853;SDS011;9556;49.374;19.446;2023-07-31T04:06:43;2.05;;;1.33;;
18853;SDS011;9556;49.374;19.446;2023-07-31T04:09:11;1.67;;;1.48;;
18853;SDS011;9556;49.374;19.446;2023-07-31T04:11:38;2.67;;;1.45;;
18853;SDS011;9556;49.374;19.446;2023-07-31T04:14:05;1.75;;;1.30;;
18853;SDS011;9556;49.374;19.446;2023-07-31T04:16:32;1.70;;;1.50;;
18853;SDS011;9556;49.374;19.446;2023-07-31T04:19:00;2.35;;;1.38;;
18853;SDS011;9556;49.374;19.446;2023-07-31T04:21:28;1.58;;;1.27;;
18853;SDS011;9556;49.374;19.446;2023-07-31T04:23:55;1.30;;;1.20;;
18853;SDS011;9556;49.374;19.446;2023-07-31T04:26:23;2.00;;;1.25;;
18853;SDS011;9556;49.374;19.446;2023-07-31T04:28:50;1.83;;;1.20;;
18853;SDS011;9556;49.374;19.446;2023-07-31T04:31:17;2.17;;;1.40;;
18853;SDS011;9556;49.374;19.446;2023-07-31T04:33:44;1.55;;;1.40;;
18853;SDS011;9556;49.374;19.446;2023-07-31T04:36:13;1.50;;;1.20;;
18853;SDS011;9556;49.374;19.446;2023-07-31T04:38:40;1.20;;;1.10;;
18853;SDS011;9556;49.374;19.446;2023-07-31T04:41:07;3.42;;;1.45;;
18853;SDS011;9556;49.374;19.446;2023-07-31T04:43:34;2.17;;;1.40;;
18853;SDS011;9556;49.374;19.446;2023-07-31T04:46:04;3.55;;;1.25;;
18853;SDS011;9556;49.374;19.446;2023-07-31T04:48:31;3.72;;;1.42;;
18853;SDS011;9556;49.374;19.446;2023-07-31T04:50:58;2.13;;;1.42;;
18853;SDS011;9556;49.374;19.446;2023-07-31T04:53:26;1.83;;;1.30;;
18853;SDS011;9556;49.374;19.446;2023-07-31T04:55:54;2.08;;;1.30;;
18853;SDS011;9556;49.374;19.446;2023-07-31T04:58:21;1.25;;;1.08;;
18853;SDS011;9556;49.374;19.446;2023-07-31T05:00:48;1.60;;;1.20;;
18853;SDS011;9556;49.374;19.446;2023-07-31T05:03:15;3.10;;;1.58;;
18853;SDS011;9556;49.374;19.446;2023-07-31T05:05:42;1.50;;;1.30;;
18853;SDS011;9556;49.374;19.446;2023-07-31T05:08:09;2.80;;;1.25;;
18853;SDS011;9556;49.374;19.446;2023-07-31T05:10:38;2.03;;;1.40;;
18853;SDS011;9556;49.374;19.446;2023-07-31T05:13:05;1.77;;;1.50;;
18853;SDS011;9556;49.374;19.446;2023-07-31T05:15:32;1.60;;;1.45;;
18853;SDS011;9556;49.374;19.446;2023-07-31T05:17:59;1.80;;;1.60;;
18853;SDS011;9556;49.374;19.446;2023-07-31T05:20:27;2.25;;;1.50;;
18853;SDS011;9556;49.374;19.446;2023-07-31T05:22:54;1.98;;;1.45;;
18853;SDS011;9556;49.374;19.446;2023-07-31T05:25:21;1.52;;;1.38;;
18853;SDS011;9556;49.374;19.446;2023-07-31T05:27:49;1.30;;;1.20;;
18853;SDS011;9556;49.374;19.446;2023-07-31T05:30:16;1.90;;;1.40;;
18853;SDS011;9556;49.374;19.446;2023-07-31T05:32:44;1.80;;;1.48;;
18853;SDS011;9556;49.374;19.446;2023-07-31T05:35:11;4.00;;;1.55;;
18853;SDS011;9556;49.374;19.446;2023-07-31T05:37:38;1.67;;;1.40;;
18853;SDS011;9556;49.374;19.446;2023-07-31T05:40:05;1.30;;;1.15;;
18853;SDS011;9556;49.374;19.446;2023-07-31T05:42:33;1.63;;;1.27;;
18853;SDS011;9556;49.374;19.446;2023-07-31T05:45:05;1.48;;;1.35;;
18853;SDS011;9556;49.374;19.446;2023-07-31T05:47:32;1.45;;;1.30;;
18853;SDS011;9556;49.374;19.446;2023-07-31T05:49:59;2.20;;;1.50;;
18853;SDS011;9556;49.374;19.446;2023-07-31T05:52:26;4.80;;;1.35;;
18853;SDS011;9556;49.374;19.446;2023-07-31T05:54:54;2.70;;;1.40;;
18853;SDS011;9556;49.374;19.446;2023-07-31T05:57:21;4.65;;;1.40;;
18853;SDS011;9556;49.374;19.446;2023-07-31T05:59:49;1.48;;;1.25;;
18853;SDS011;9556;49.374;19.446;2023-07-31T06:02:17;2.85;;;1.40;;
18853;SDS011;9556;49.374;19.446;2023-07-31T06:04:44;1.52;;;1.40;;
18853;SDS011;9556;49.374;19.446;2023-07-31T06:07:11;1.83;;;1.60;;
18853;SDS011;9556;49.374;19.446;2023-07-31T06:09:38;1.42;;;1.23;;
18853;SDS011;9556;49.374;19.446;2023-07-31T06:12:06;1.90;;;1.60;;
18853;SDS011;9556;49.374;19.446;2023-07-31T06:14:33;1.70;;;1.58;;
18853;SDS011;9556;49.374;19.446;2023-07-31T06:17:01;2.67;;;1.70;;
18853;SDS011;9556;49.374;19.446;2023-07-31T06:19:29;4.15;;;2.80;;
18853;SDS011;9556;49.374;19.446;2023-07-31T06:21:56;2.78;;;2.20;;
18853;SDS011;9556;49.374;19.446;2023-07-31T06:24:23;3.60;;;2.90;;
18853;SDS011;9556;49.374;19.446;2023-07-31T06:26:51;7.68;;;4.10;;
18853;SDS011;9556;49.374;19.446;2023-07-31T06:29:18;7.07;;;4.10;;
18853;SDS011;9556;49.374;19.446;2023-07-31T06:31:45;6.95;;;3.60;;
18853;SDS011;9556;49.374;19.446;2023-07-31T06:34:12;9.95;;;3.42;;
18853;SDS011;9556;49.374;19.446;2023-07-31T06:36:41;5.85;;;3.50;;
18853;SDS011;9556;49.374;19.446;2023-07-31T06:39:08;4.80;;;2.95;;
18853;SDS011;9556;49.374;19.446;2023-07-31T06:41:35;3.78;;;2.65;;
18853;SDS011;9556;49.374;19.446;2023-07-31T06:44:02;3.92;;;2.70;;
18853;SDS011;9556;49.374;19.446;2023-07-31T06:46:29;4.63;;;2.60;;
18853;SDS011;9556;49.374;19.446;2023-07-31T06:48:56;4.25;;;2.60;;
18853;SDS011;9556;49.374;19.446;2023-07-31T06:51:23;3.72;;;2.63;;
18853;SDS011;9556;49.374;19.446;2023-07-31T06:53:52;5.13;;;2.20;;
18853;SDS011;9556;49.374;19.446;2023-07-31T06:58:47;4.53;;;2.15;;
18853;SDS011;9556;49.374;19.446;2023-07-31T07:01:14;3.33;;;2.20;;
18853;SDS011;9556;49.374;19.446;2023-07-31T07:03:41;3.00;;;1.88;;
18853;SDS011;9556;49.374;19.446;2023-07-31T07:06:08;4.25;;;2.40;;
18853;SDS011;9556;49.374;19.446;2023-07-31T07:08:36;3.90;;;2.38;;
18853;SDS011;9556;49.374;19.446;2023-07-31T07:11:04;5.28;;;2.17;;
18853;SDS011;9556;49.374;19.446;2023-07-31T07:13:31;3.75;;;1.98;;
18853;SDS011;9556;49.374;19.446;2023-07-31T07:15:58;6.10;;;2.17;;
18853;SDS011;9556;49.374;19.446;2023-07-31T07:18:26;6.22;;;1.88;;
18853;SDS011;9556;49.374;19.446;2023-07-31T07:20:53;4.10;;;1.95;;
18853;SDS011;9556;49.374;19.446;2023-07-31T07:23:22;2.40;;;1.90;;
18853;SDS011;9556;49.374;19.446;2023-07-31T07:25:49;4.97;;;1.95;;
18853;SDS011;9556;49.374;19.446;2023-07-31T07:28:18;3.95;;;2.00;;
18853;SDS011;9556;49.374;19.446;2023-07-31T07:30:50;4.22;;;1.90;;
18853;SDS011;9556;49.374;19.446;2023-07-31T07:33:17;4.10;;;2.00;;
18853;SDS011;9556;49.374;19.446;2023-07-31T07:35:44;3.67;;;2.10;;
18853;SDS011;9556;49.374;19.446;2023-07-31T07:38:13;5.20;;;2.00;;
18853;SDS011;9556;49.374;19.446;2023-07-31T07:40:40;3.97;;;1.95;;
18853;SDS011;9556;49.374;19.446;2023-07-31T07:43:08;6.13;;;2.40;;
18853;SDS011;9556;49.374;19.446;2023-07-31T07:45:36;2.55;;;1.80;;
18853;SDS011;9556;49.374;19.446;2023-07-31T07:48:03;3.03;;;2.05;;
18853;SDS011;9556;49.374;19.446;2023-07-31T07:50:31;4.85;;;2.20;;
18853;SDS011;9556;49.374;19.446;2023-07-31T07:52:58;7.90;;;2.30;;
18853;SDS011;9556;49.374;19.446;2023-07-31T07:55:25;4.85;;;1.92;;
18853;SDS011;9556;49.374;19.446;2023-07-31T07:57:53;4.10;;;2.17;;
18853;SDS011;9556;49.374;19.446;2023-07-31T08:00:20;4.20;;;1.98;;
18853;SDS011;9556;49.374;19.446;2023-07-31T08:02:48;3.75;;;2.42;;
18853;SDS011;9556;49.374;19.446;2023-07-31T08:05:16;3.13;;;2.22;;
18853;SDS011;9556;49.374;19.446;2023-07-31T08:07:43;4.53;;;2.08;;
18853;SDS011;9556;49.374;19.446;2023-07-31T08:10:10;4.18;;;2.13;;
18853;SDS011;9556;49.374;19.446;2023-07-31T08:12:37;4.07;;;2.28;;
18853;SDS011;9556;49.374;19.446;2023-07-31T08:15:05;3.55;;;2.17;;
18853;SDS011;9556;49.374;19.446;2023-07-31T08:17:33;5.25;;;1.90;;
18853;SDS011;9556;49.374;19.446;2023-07-31T08:20:01;4.20;;;1.90;;
18853;SDS011;9556;49.374;19.446;2023-07-31T08:22:28;4.45;;;2.10;;
18853;SDS011;9556;49.374;19.446;2023-07-31T08:24:56;2.67;;;1.92;;
18853;SDS011;9556;49.374;19.446;2023-07-31T08:27:23;2.88;;;1.70;;
18853;SDS011;9556;49.374;19.446;2023-07-31T08:29:51;5.90;;;2.30;;
18853;SDS011;9556;49.374;19.446;2023-07-31T08:32:18;3.42;;;1.75;;
18853;SDS011;9556;49.374;19.446;2023-07-31T08:34:45;4.97;;;1.95;;
18853;SDS011;9556;49.374;19.446;2023-07-31T08:37:14;3.97;;;1.75;;
18853;SDS011;9556;49.374;19.446;2023-07-31T08:39:41;3.08;;;1.80;;
18853;SDS011;9556;49.374;19.446;2023-07-31T08:42:08;4.03;;;2.17;;
18853;SDS011;9556;49.374;19.446;2023-07-31T08:44:35;2.55;;;1.80;;
18853;SDS011;9556;49.374;19.446;2023-07-31T08:47:03;4.13;;;1.95;;
18853;SDS011;9556;49.374;19.446;2023-07-31T08:49:31;3.63;;;2.00;;
18853;SDS011;9556;49.374;19.446;2023-07-31T08:51:58;3.20;;;2.00;;
18853;SDS011;9556;49.374;19.446;2023-07-31T08:54:27;5.88;;;2.35;;
18853;SDS011;9556;49.374;19.446;2023-07-31T08:56:56;7.20;;;3.33;;
18853;SDS011;9556;49.374;19.446;2023-07-31T08:59:24;11.85;;;3.92;;
18853;SDS011;9556;49.374;19.446;2023-07-31T09:01:53;11.20;;;3.72;;
18853;SDS011;9556;49.374;19.446;2023-07-31T09:04:21;10.73;;;3.65;;
18853;SDS011;9556;49.374;19.446;2023-07-31T09:06:49;6.80;;;3.67;;
18853;SDS011;9556;49.374;19.446;2023-07-31T09:09:17;7.38;;;3.10;;
18853;SDS011;9556;49.374;19.446;2023-07-31T09:11:47;9.75;;;3.72;;
18853;SDS011;9556;49.374;19.446;2023-07-31T09:14:14;7.57;;;3.45;;
18853;SDS011;9556;49.374;19.446;2023-07-31T09:16:51;5.38;;;2.75;;
18853;SDS011;9556;49.374;19.446;2023-07-31T09:19:25;8.35;;;3.45;;
18853;SDS011;9556;49.374;19.446;2023-07-31T09:22:12;7.47;;;3.00;;
18853;SDS011;9556;49.374;19.446;2023-07-31T09:24:40;8.38;;;2.95;;
18853;SDS011;9556;49.374;19.446;2023-07-31T09:27:08;5.28;;;2.65;;
18853;SDS011;9556;49.374;19.446;2023-07-31T09:29:35;5.30;;;2.38;;
18853;SDS011;9556;49.374;19.446;2023-07-31T09:32:03;5.28;;;2.35;;
18853;SDS011;9556;49.374;19.446;2023-07-31T09:34:36;6.13;;;2.85;;
18853;SDS011;9556;49.374;19.446;2023-07-31T09:37:04;5.95;;;3.00;;
18853;SDS011;9556;49.374;19.446;2023-07-31T09:39:31;4.07;;;2.30;;
18853;SDS011;9556;49.374;19.446;2023-07-31T09:41:58;5.30;;;2.40;;
18853;SDS011;9556;49.374;19.446;2023-07-31T09:44:38;4.20;;;2.15;;
18853;SDS011;9556;49.374;19.446;2023-07-31T09:47:06;6.38;;;2.20;;
18853;SDS011;9556;49.374;19.446;2023-07-31T09:49:33;8.20;;;2.70;;
18853;SDS011;9556;49.374;19.446;2023-07-31T09:52:00;6.00;;;2.20;;
18853;SDS011;9556;49.374;19.446;2023-07-31T09:54:28;5.97;;;2.40;;
18853;SDS011;9556;49.374;19.446;2023-07-31T09:57:00;7.15;;;2.42;;
18853;SDS011;9556;49.374;19.446;2023-07-31T09:59:28;5.38;;;2.50;;
18853;SDS011;9556;49.374;19.446;2023-07-31T10:01:56;6.60;;;2.30;;
18853;SDS011;9556;49.374;19.446;2023-07-31T10:04:25;5.50;;;2.53;;
18853;SDS011;9556;49.374;19.446;2023-07-31T10:06:54;6.32;;;2.33;;
18853;SDS011;9556;49.374;19.446;2023-07-31T10:09:21;4.15;;;2.17;;
18853;SDS011;9556;49.374;19.446;2023-07-31T10:11:51;7.85;;;2.28;;
18853;SDS011;9556;49.374;19.446;2023-07-31T10:14:21;5.80;;;2.60;;
18853;SDS011;9556;49.374;19.446;2023-07-31T10:16:48;4.47;;;2.40;;
18853;SDS011;9556;49.374;19.446;2023-07-31T10:19:17;5.90;;;2.25;;
18853;SDS011;9556;49.374;19.446;2023-07-31T10:21:45;8.13;;;2.78;;
18853;SDS011;9556;49.374;19.446;2023-07-31T10:24:12;3.95;;;2.25;;
18853;SDS011;9556;49.374;19.446;2023-07-31T10:26:40;5.47;;;2.42;;
18853;SDS011;9556;49.374;19.446;2023-07-31T10:29:08;4.72;;;2.15;;
18853;SDS011;9556;49.374;19.446;2023-07-31T10:31:35;3.65;;;2.33;;
18853;SDS011;9556;49.374;19.446;2023-07-31T10:34:02;6.82;;;2.45;;
18853;SDS011;9556;49.374;19.446;2023-07-31T10:36:31;4.70;;;2.40;;
18853;SDS011;9556;49.374;19.446;2023-07-31T10:38:58;3.70;;;2.20;;
18853;SDS011;9556;49.374;19.446;2023-07-31T10:41:29;3.25;;;2.05;;
18853;SDS011;9556;49.374;19.446;2023-07-31T10:43:57;3.75;;;2.28;;
18853;SDS011;9556;49.374;19.446;2023-07-31T10:46:25;5.13;;;2.13;;
18853;SDS011;9556;49.374;19.446;2023-07-31T10:48:57;4.03;;;2.50;;
18853;SDS011;9556;49.374;19.446;2023-07-31T10:51:26;4.43;;;2.45;;
18853;SDS011;9556;49.374;19.446;2023-07-31T10:54:11;4.30;;;2.40;;
18853;SDS011;9556;49.374;19.446;2023-07-31T10:56:40;4.10;;;2.30;;
18853;SDS011;9556;49.374;19.446;2023-07-31T10:59:11;3.30;;;2.20;;
18853;SDS011;9556;49.374;19.446;2023-07-31T11:01:51;3.22;;;2.38;;
18853;SDS011;9556;49.374;19.446;2023-07-31T11:04:22;4.80;;;2.38;;
18853;SDS011;9556;49.374;19.446;2023-07-31T11:06:59;3.42;;;2.13;;
18853;SDS011;9556;49.374;19.446;2023-07-31T11:09:31;6.78;;;2.33;;
18853;SDS011;9556;49.374;19.446;2023-07-31T11:11:59;3.20;;;2.28;;
18853;SDS011;9556;49.374;19.446;2023-07-31T11:14:26;4.13;;;2.33;;
18853;SDS011;9556;49.374;19.446;2023-07-31T11:16:54;3.90;;;2.47;;
18853;SDS011;9556;49.374;19.446;2023-07-31T11:19:21;3.28;;;2.22;;
18853;SDS011;9556;49.374;19.446;2023-07-31T11:21:49;4.03;;;2.42;;
18853;SDS011;9556;49.374;19.446;2023-07-31T11:24:16;3.70;;;2.53;;
18853;SDS011;9556;49.374;19.446;2023-07-31T11:26:49;3.97;;;2.38;;
18853;SDS011;9556;49.374;19.446;2023-07-31T11:29:16;5.70;;;2.58;;
18853;SDS011;9556;49.374;19.446;2023-07-31T11:31:44;3.58;;;2.40;;
18853;SDS011;9556;49.374;19.446;2023-07-31T11:34:11;3.67;;;2.55;;
18853;SDS011;9556;49.374;19.446;2023-07-31T11:36:38;3.03;;;2.00;;
18853;SDS011;9556;49.374;19.446;2023-07-31T11:39:06;3.67;;;2.03;;
18853;SDS011;9556;49.374;19.446;2023-07-31T11:41:34;2.75;;;2.20;;
18853;SDS011;9556;49.374;19.446;2023-07-31T11:44:02;3.22;;;2.20;;
18853;SDS011;9556;49.374;19.446;2023-07-31T11:46:30;3.28;;;2.20;;
18853;SDS011;9556;49.374;19.446;2023-07-31T11:48:58;3.75;;;2.33;;
18853;SDS011;9556;49.374;19.446;2023-07-31T11:51:26;3.45;;;2.25;;
18853;SDS011;9556;49.374;19.446;2023-07-31T11:53:55;2.45;;;2.10;;
18853;SDS011;9556;49.374;19.446;2023-07-31T11:56:23;2.97;;;2.45;;
18853;SDS011;9556;49.374;19.446;2023-07-31T11:58:51;6.95;;;2.45;;
18853;SDS011;9556;49.374;19.446;2023-07-31T12:01:21;3.85;;;2.53;;
18853;SDS011;9556;49.374;19.446;2023-07-31T12:03:49;3.15;;;2.28;;
18853;SDS011;9556;49.374;19.446;2023-07-31T12:06:17;3.25;;;2.20;;
18853;SDS011;9556;49.374;19.446;2023-07-31T12:08:45;3.45;;;2.13;;
18853;SDS011;9556;49.374;19.446;2023-07-31T12:11:14;3.45;;;2.20;;
18853;SDS011;9556;49.374;19.446;2023-07-31T12:13:42;4.25;;;2.40;;
18853;SDS011;9556;49.374;19.446;2023-07-31T12:16:10;4.90;;;2.33;;
18853;SDS011;9556;49.374;19.446;2023-07-31T12:18:38;3.95;;;2.22;;
18853;SDS011;9556;49.374;19.446;2023-07-31T12:21:06;4.30;;;2.50;;
18853;SDS011;9556;49.374;19.446;2023-07-31T12:23:35;3.60;;;2.40;;
18853;SDS011;9556;49.374;19.446;2023-07-31T12:26:03;2.50;;;1.88;;
18853;SDS011;9556;49.374;19.446;2023-07-31T12:28:34;4.05;;;2.40;;
18853;SDS011;9556;49.374;19.446;2023-07-31T12:31:01;2.88;;;2.20;;
18853;SDS011;9556;49.374;19.446;2023-07-31T12:33:30;2.58;;;2.10;;
18853;SDS011;9556;49.374;19.446;2023-07-31T12:35:59;3.22;;;2.40;;
18853;SDS011;9556;49.374;19.446;2023-07-31T12:38:27;3.38;;;2.20;;
18853;SDS011;9556;49.374;19.446;2023-07-31T12:40:54;3.05;;;1.80;;
18853;SDS011;9556;49.374;19.446;2023-07-31T12:43:21;2.47;;;2.10;;
18853;SDS011;9556;49.374;19.446;2023-07-31T12:45:48;3.28;;;2.17;;
18853;SDS011;9556;49.374;19.446;2023-07-31T12:48:16;3.15;;;2.00;;
18853;SDS011;9556;49.374;19.446;2023-07-31T12:50:43;3.55;;;2.38;;
18853;SDS011;9556;49.374;19.446;2023-07-31T12:53:11;3.38;;;2.33;;
18853;SDS011;9556;49.374;19.446;2023-07-31T12:55:38;4.20;;;2.30;;
18853;SDS011;9556;49.374;19.446;2023-07-31T12:58:06;4.93;;;2.40;;
18853;SDS011;9556;49.374;19.446;2023-07-31T13:00:33;3.13;;;1.98;;
18853;SDS011;9556;49.374;19.446;2023-07-31T13:03:00;3.50;;;2.40;;
18853;SDS011;9556;49.374;19.446;2023-07-31T13:05:28;2.60;;;2.10;;
18853;SDS011;9556;49.374;19.446;2023-07-31T13:07:55;2.55;;;2.00;;
18853;SDS011;9556;49.374;19.446;2023-07-31T13:10:24;4.55;;;2.50;;
18853;SDS011;9556;49.374;19.446;2023-07-31T13:12:51;3.58;;;2.17;;
18853;SDS011;9556;49.374;19.446;2023-07-31T13:15:19;3.08;;;2.10;;
18853;SDS011;9556;49.374;19.446;2023-07-31T13:17:46;3.42;;;2.13;;
18853;SDS011;9556;49.374;19.446;2023-07-31T13:20:13;3.33;;;2.15;;
18853;SDS011;9556;49.374;19.446;2023-07-31T13:22:40;3.55;;;2.20;;
18853;SDS011;9556;49.374;19.446;2023-07-31T13:25:08;3.53;;;2.03;;
18853;SDS011;9556;49.374;19.446;2023-07-31T13:27:36;3.75;;;2.00;;
18853;SDS011;9556;49.374;19.446;2023-07-31T13:30:04;3.13;;;1.95;;
18853;SDS011;9556;49.374;19.446;2023-07-31T13:32:31;2.50;;;1.83;;
18853;SDS011;9556;49.374;19.446;2023-07-31T13:34:58;2.80;;;1.88;;
18853;SDS011;9556;49.374;19.446;2023-07-31T13:37:25;3.55;;;2.05;;
18853;SDS011;9556;49.374;19.446;2023-07-31T13:39:52;2.80;;;2.20;;
18853;SDS011;9556;49.374;19.446;2023-07-31T13:42:20;3.10;;;1.98;;
18853;SDS011;9556;49.374;19.446;2023-07-31T13:44:48;2.55;;;1.90;;
18853;SDS011;9556;49.374;19.446;2023-07-31T13:47:15;6.40;;;1.92;;
18853;SDS011;9556;49.374;19.446;2023-07-31T13:49:42;4.63;;;2.10;;
18853;SDS011;9556;49.374;19.446;2023-07-31T13:52:10;3.22;;;2.05;;
18853;SDS011;9556;49.374;19.446;2023-07-31T13:54:37;3.75;;;2.00;;
18853;SDS011;9556;49.374;19.446;2023-07-31T13:57:04;3.95;;;2.10;;
18853;SDS011;9556;49.374;19.446;2023-07-31T13:59:33;4.95;;;2.25;;
18853;SDS011;9556;49.374;19.446;2023-07-31T14:02:02;9.23;;;2.05;;
18853;SDS011;9556;49.374;19.446;2023-07-31T14:04:30;3.55;;;2.20;;
18853;SDS011;9556;49.374;19.446;2023-07-31T14:06:57;3.95;;;2.00;;
18853;SDS011;9556;49.374;19.446;2023-07-31T14:09:24;6.22;;;2.35;;
18853;SDS011;9556;49.374;19.446;2023-07-31T14:11:51;2.67;;;2.00;;
18853;SDS011;9556;49.374;19.446;2023-07-31T14:14:19;5.32;;;2.08;;
18853;SDS011;9556;49.374;19.446;2023-07-31T14:16:46;4.63;;;1.90;;
18853;SDS011;9556;49.374;19.446;2023-07-31T14:19:14;3.83;;;2.00;;
18853;SDS011;9556;49.374;19.446;2023-07-31T14:21:41;4.90;;;2.38;;
18853;SDS011;9556;49.374;19.446;2023-07-31T14:24:09;5.55;;;2.13;;
18853;SDS011;9556;49.374;19.446;2023-07-31T14:26:36;4.03;;;1.92;;
18853;SDS011;9556;49.374;19.446;2023-07-31T14:29:03;3.55;;;1.88;;
18853;SDS011;9556;49.374;19.446;2023-07-31T14:31:30;3.65;;;1.95;;
18853;SDS011;9556;49.374;19.446;2023-07-31T14:33:57;2.88;;;1.98;;
18853;SDS011;9556;49.374;19.446;2023-07-31T14:36:25;4.93;;;2.00;;
18853;SDS011;9556;49.374;19.446;2023-07-31T14:38:53;6.75;;;1.92;;
18853;SDS011;9556;49.374;19.446;2023-07-31T14:41:20;3.25;;;2.10;;
18853;SDS011;9556;49.374;19.446;2023-07-31T14:43:47;5.65;;;2.22;;
18853;SDS011;9556;49.374;19.446;2023-07-31T14:46:14;6.28;;;2.17;;
18853;SDS011;9556;49.374;19.446;2023-07-31T14:48:42;4.03;;;2.40;;
18853;SDS011;9556;49.374;19.446;2023-07-31T14:51:09;2.97;;;1.90;;
18853;SDS011;9556;49.374;19.446;2023-07-31T14:53:37;3.20;;;2.22;;